Time;durP1;ratioP1;P1;durP2;ratioP2;P2;SDS_P1;SDS_P2;PMS_P1;PMS_P2;Temp;Humidity;BMP_temperature;BMP_pressure;BME280_temperature;BME280_humidity;BME280_pressure;Samples;Min_cycle;Max_cycle;Signal;HPM_P1;HPM_P2
2023/06/18 00:00:19;;;;;;;7.43;6.73;;;19.80;99.90;;;;;;5071736;28;20303;-81
2023/06/18 00:02:45;;;;;;;7.37;6.67;;;19.70;99.90;;;;;;5071182;28;20181;-80
2023/06/18 00:05:10;;;;;;;7.80;6.67;;;19.70;99.90;;;;;;5089665;28;20790;-82
2023/06/18 00:07:36;;;;;;;5.80;5.40;;;19.60;99.90;;;;;;5071131;28;20604;-81
2023/06/18 00:10:03;;;;;;;10.20;6.90;;;19.60;99.90;;;;;;5089644;28;20287;-81
2023/06/18 00:12:29;;;;;;;6.93;6.10;;;19.50;99.90;;;;;;5089370;28;20182;-80
2023/06/18 00:14:55;;;;;;;7.20;6.40;;;19.50;99.90;;;;;;5089056;28;20467;-82
2023/06/18 00:17:21;;;;;;;7.30;6.60;;;19.50;99.90;;;;;;5069689;28;20176;-82
2023/06/18 00:19:46;;;;;;;9.40;6.50;;;19.40;99.90;;;;;;5089615;28;20455;-80
2023/06/18 00:22:14;;;;;;;6.70;6.10;;;19.40;99.90;;;;;;5070738;28;20438;-80
2023/06/18 00:24:40;;;;;;;7.23;6.60;;;19.40;99.90;;;;;;5089413;28;20182;-82
2023/06/18 00:27:06;;;;;;;9.93;6.53;;;19.30;99.90;;;;;;5089403;28;20415;-82
2023/06/18 00:29:31;;;;;;;8.33;6.30;;;19.30;99.90;;;;;;5089583;28;20191;-81
2023/06/18 00:31:57;;;;;;;6.53;5.90;;;19.30;99.90;;;;;;5088969;28;20189;-82
2023/06/18 00:34:28;;;;;;;16.77;7.67;;;19.30;99.90;;;;;;5071115;28;20247;-82
2023/06/18 00:36:54;;;;;;;6.43;5.83;;;19.30;99.90;;;;;;5089045;28;20181;-80
2023/06/18 00:39:20;;;;;;;8.70;6.50;;;19.20;99.90;;;;;;5070829;28;21097;-80
2023/06/18 00:41:45;;;;;;;7.70;6.97;;;19.20;99.90;;;;;;5070916;28;20409;-80
2023/06/18 00:44:12;;;;;;;7.07;6.37;;;19.20;99.90;;;;;;5049805;28;1143277;-81
2023/06/18 00:46:38;;;;;;;8.30;7.50;;;19.20;99.90;;;;;;5089777;28;20256;-80
2023/06/18 00:49:04;;;;;;;7.77;7.00;;;19.20;99.90;;;;;;5090291;28;20529;-81
2023/06/18 00:51:31;;;;;;;9.23;6.60;;;19.20;99.90;;;;;;5089697;28;20248;-80
2023/06/18 00:53:56;;;;;;;8.27;7.47;;;19.20;99.90;;;;;;5089811;28;20864;-80
2023/06/18 00:56:25;;;;;;;7.67;6.97;;;19.20;99.90;;;;;;5071755;28;20412;-81
2023/06/18 00:58:51;;;;;;;7.60;6.97;;;19.20;99.90;;;;;;5090331;28;20341;-80
2023/06/18 01:01:17;;;;;;;7.43;6.73;;;19.20;99.90;;;;;;5071215;28;20741;-81
2023/06/18 01:03:47;;;;;;;10.30;7.37;;;19.20;99.90;;;;;;5089738;28;20517;-80
2023/06/18 01:06:17;;;;;;;9.40;7.07;;;19.20;99.90;;;;;;5089675;28;20174;-80
2023/06/18 01:08:43;;;;;;;8.60;7.70;;;19.20;99.90;;;;;;5090033;28;20449;-81
2023/06/18 01:11:09;;;;;;;9.00;8.07;;;19.20;99.90;;;;;;5089576;28;20410;-81
2023/06/18 01:13:39;;;;;;;8.20;7.23;;;19.20;99.90;;;;;;5089848;28;20454;-82
2023/06/18 01:16:08;;;;;;;9.07;7.90;;;19.10;99.90;;;;;;5070264;28;20427;-80
2023/06/18 01:18:45;;;;;;;9.10;8.23;;;19.10;99.90;;;;;;5071169;28;20502;-80
2023/06/18 01:21:15;;;;;;;9.57;8.07;;;19.00;99.90;;;;;;5089074;28;20595;-81
2023/06/18 01:23:50;;;;;;;9.90;7.93;;;19.00;99.90;;;;;;5071191;28;20943;-80
2023/06/18 01:26:20;;;;;;;10.40;8.87;;;19.00;99.90;;;;;;5089318;28;20657;-81
2023/06/18 01:28:51;;;;;;;8.63;7.83;;;18.90;99.90;;;;;;5089642;28;20836;-80
2023/06/18 01:31:22;;;;;;;8.70;7.90;;;18.90;99.90;;;;;;5089084;28;20400;-81
2023/06/18 01:33:51;;;;;;;9.33;8.37;;;18.90;99.90;;;;;;5089397;28;20862;-80
2023/06/18 01:36:34;;;;;;;9.60;8.70;;;18.90;99.90;;;;;;5089094;28;20510;-81
2023/06/18 01:39:24;;;;;;;9.43;8.47;;;19.00;99.90;;;;;;5089035;28;20451;-80
2023/06/18 01:41:57;;;;;;;9.57;8.57;;;18.90;99.90;;;;;;5070484;28;20930;-80
2023/06/18 01:44:24;;;;;;;10.37;8.10;;;18.90;99.90;;;;;;5070950;28;20473;-81
2023/06/18 01:46:53;;;;;;;9.73;8.73;;;18.90;99.90;;;;;;5070450;28;20428;-80
2023/06/18 01:49:20;;;;;;;10.83;9.67;;;18.90;99.90;;;;;;5070694;28;20450;-80
2023/06/18 01:51:47;;;;;;;10.23;9.23;;;18.80;99.90;;;;;;5088532;28;20903;-80
2023/06/18 01:54:13;;;;;;;9.93;9.03;;;18.80;99.90;;;;;;5088611;28;20466;-82
2023/06/18 01:56:39;;;;;;;12.87;8.87;;;18.80;99.90;;;;;;5088683;28;20841;-80
2023/06/18 01:59:05;;;;;;;10.50;8.97;;;18.80;99.90;;;;;;5088529;28;20509;-83
2023/06/18 02:01:31;;;;;;;11.13;9.40;;;18.80;99.90;;;;;;5070186;28;20520;-80
2023/06/18 02:03:57;;;;;;;9.43;8.50;;;18.80;99.90;;;;;;5088125;28;20247;-81
2023/06/18 02:06:23;;;;;;;12.50;8.93;;;18.80;99.90;;;;;;5070138;28;20173;-80
2023/06/18 02:08:49;;;;;;;10.13;9.13;;;18.80;99.90;;;;;;5088755;28;20451;-83
2023/06/18 02:11:14;;;;;;;11.40;9.57;;;18.70;99.90;;;;;;5088463;28;20431;-83
2023/06/18 02:13:40;;;;;;;11.60;9.87;;;18.70;99.90;;;;;;5088197;28;20174;-82
2023/06/18 02:16:06;;;;;;;11.30;9.00;;;18.70;99.90;;;;;;5069901;28;20320;-82
2023/06/18 02:18:32;;;;;;;11.13;9.50;;;18.70;99.90;;;;;;5087146;28;20218;-81
2023/06/18 02:20:58;;;;;;;9.90;9.00;;;18.70;99.90;;;;;;5069210;28;20184;-80
2023/06/18 02:23:25;;;;;;;11.27;9.33;;;18.60;99.90;;;;;;5088047;28;20416;-81
2023/06/18 02:25:51;;;;;;;13.10;10.60;;;18.60;99.90;;;;;;5088541;28;21107;-82
2023/06/18 02:28:16;;;;;;;11.50;10.33;;;18.60;99.90;;;;;;5069599;28;20528;-80
2023/06/18 02:30:42;;;;;;;11.73;9.50;;;18.50;99.90;;;;;;5088194;28;20202;-80
2023/06/18 02:33:10;;;;;;;10.53;9.43;;;18.50;99.90;;;;;;5069498;28;20190;-81
2023/06/18 02:35:36;;;;;;;11.77;10.47;;;18.40;99.90;;;;;;5069728;28;20215;-82
2023/06/18 02:38:02;;;;;;;12.67;10.90;;;18.40;99.90;;;;;;5069381;28;20573;-82
2023/06/18 02:40:28;;;;;;;11.07;9.97;;;18.40;99.90;;;;;;5088161;28;20195;-79
2023/06/18 02:42:54;;;;;;;11.07;10.00;;;18.40;99.90;;;;;;5087605;28;20524;-82
2023/06/18 02:45:22;;;;;;;12.60;10.07;;;18.40;99.90;;;;;;5087957;28;20236;-80
2023/06/18 02:47:49;;;;;;;11.23;10.03;;;18.40;99.90;;;;;;5087803;28;20406;-80
2023/06/18 02:50:16;;;;;;;11.03;9.97;;;18.40;99.90;;;;;;5088204;28;20435;-80
2023/06/18 02:52:42;;;;;;;13.17;10.27;;;18.40;99.90;;;;;;5087338;28;20489;-80
2023/06/18 02:55:09;;;;;;;11.80;10.47;;;18.30;99.90;;;;;;5069351;28;20476;-82
2023/06/18 02:57:37;;;;;;;11.10;9.93;;;18.30;99.90;;;;;;5087804;28;20832;-80
2023/06/18 03:00:11;;;;;;;11.13;9.83;;;18.30;99.90;;;;;;5087410;28;20424;-82
2023/06/18 03:02:37;;;;;;;15.50;9.80;;;18.30;99.90;;;;;;5069211;28;20471;-82
2023/06/18 03:05:03;;;;;;;12.13;10.20;;;18.20;99.90;;;;;;5087408;28;20435;-80
2023/06/18 03:07:29;;;;;;;11.67;10.10;;;18.20;99.90;;;;;;5087477;28;20440;-80
2023/06/18 03:09:55;;;;;;;12.23;9.80;;;18.20;99.90;;;;;;5069601;28;20446;-82
2023/06/18 03:12:21;;;;;;;10.50;9.47;;;18.20;99.90;;;;;;5068989;28;20232;-83
2023/06/18 03:14:47;;;;;;;12.27;11.00;;;18.20;99.90;;;;;;5087629;28;20217;-80
2023/06/18 03:17:13;;;;;;;11.27;10.07;;;18.20;99.90;;;;;;5086151;28;20248;-80
2023/06/18 03:19:38;;;;;;;12.03;10.83;;;18.20;99.90;;;;;;5087016;28;20795;-80
2023/06/18 03:22:05;;;;;;;11.53;10.20;;;18.20;99.90;;;;;;5068807;28;20177;-79
2023/06/18 03:24:32;;;;;;;13.13;10.30;;;18.20;99.90;;;;;;5087424;28;20194;-80
2023/06/18 03:26:58;;;;;;;11.17;10.00;;;18.20;99.90;;;;;;5087249;28;20425;-80
2023/06/18 03:29:25;;;;;;;10.63;9.53;;;18.20;99.90;;;;;;5087438;28;20449;-80
2023/06/18 03:31:53;;;;;;;11.47;10.30;;;18.20;99.90;;;;;;5069749;28;20519;-83
2023/06/18 03:34:20;;;;;;;10.53;9.30;;;18.20;99.90;;;;;;5091459;28;20474;-80
2023/06/18 03:36:47;;;;;;;12.73;9.73;;;18.20;99.90;;;;;;5091283;28;20407;-82
2023/06/18 03:39:18;;;;;;;13.03;10.50;;;18.20;99.90;;;;;;5091208;28;20421;-82
2023/06/18 03:41:44;;;;;;;12.67;10.47;;;18.20;99.90;;;;;;5073120;28;20439;-80
2023/06/18 03:44:10;;;;;;;10.80;9.43;;;18.20;99.90;;;;;;5091241;28;20719;-82
2023/06/18 03:46:36;;;;;;;24.67;9.87;;;18.20;99.90;;;;;;5091701;28;20805;-82
2023/06/18 03:49:02;;;;;;;10.70;9.60;;;18.20;99.90;;;;;;5091447;28;20256;-82
2023/06/18 03:51:27;;;;;;;10.87;9.77;;;18.20;99.90;;;;;;5090808;28;20839;-81
2023/06/18 03:53:53;;;;;;;13.83;10.43;;;18.20;99.90;;;;;;5072819;28;20578;-80
2023/06/18 03:56:20;;;;;;;10.50;9.50;;;18.30;99.90;;;;;;5072634;28;20179;-80
2023/06/18 03:58:46;;;;;;;10.43;9.33;;;18.30;99.90;;;;;;5090854;28;20442;-81
2023/06/18 04:01:11;;;;;;;10.77;8.47;;;18.30;99.90;;;;;;5072669;28;20449;-82
2023/06/18 04:03:37;;;;;;;11.13;9.80;;;18.40;99.90;;;;;;5072784;28;20418;-82
2023/06/18 04:06:04;;;;;;;9.97;8.80;;;18.40;99.90;;;;;;5090780;28;20293;-82
2023/06/18 04:08:30;;;;;;;10.13;9.10;;;18.50;99.90;;;;;;5091193;28;20508;-82
2023/06/18 04:10:56;;;;;;;10.03;8.67;;;18.50;99.90;;;;;;5090889;28;20407;-82
2023/06/18 04:13:22;;;;;;;9.67;8.47;;;18.50;99.90;;;;;;5072220;28;20422;-82
2023/06/18 04:15:48;;;;;;;10.30;9.23;;;18.60;99.90;;;;;;5072646;28;20218;-80
2023/06/18 04:18:14;;;;;;;11.40;9.50;;;18.60;99.90;;;;;;5070642;28;20733;-82
2023/06/18 04:20:40;;;;;;;8.70;7.90;;;18.70;99.90;;;;;;5090720;28;20431;-80
2023/06/18 04:23:06;;;;;;;10.80;9.70;;;18.70;99.90;;;;;;5090465;28;20809;-82
2023/06/18 04:25:32;;;;;;;11.20;9.23;;;18.80;99.90;;;;;;5090874;28;20431;-80
2023/06/18 04:27:58;;;;;;;11.07;9.20;;;18.80;99.90;;;;;;5071924;28;20269;-80
2023/06/18 04:30:24;;;;;;;10.53;9.00;;;18.90;99.90;;;;;;5090383;28;20562;-82
2023/06/18 04:32:50;;;;;;;11.77;10.37;;;18.90;99.90;;;;;;5072327;28;21122;-79
2023/06/18 04:35:16;;;;;;;12.30;10.20;;;19.00;99.90;;;;;;5090253;28;20466;-82
2023/06/18 04:37:41;;;;;;;11.40;8.83;;;19.10;99.90;;;;;;5090786;28;20351;-80
2023/06/18 04:40:08;;;;;;;10.20;9.10;;;19.10;99.90;;;;;;5090333;28;20420;-82
2023/06/18 04:42:35;;;;;;;10.47;8.33;;;19.20;99.90;;;;;;5089370;28;20235;-82
2023/06/18 04:45:01;;;;;;;10.60;8.40;;;19.20;99.90;;;;;;5090500;28;20515;-81
2023/06/18 04:47:27;;;;;;;10.10;9.07;;;19.30;99.90;;;;;;5089787;28;20777;-83
2023/06/18 04:49:53;;;;;;;9.77;8.80;;;19.30;99.90;;;;;;5090279;28;20440;-82
2023/06/18 04:52:18;;;;;;;10.03;8.60;;;19.40;99.90;;;;;;5089582;28;20191;-83
2023/06/18 04:54:44;;;;;;;10.70;8.07;;;19.50;99.90;;;;;;5089864;28;20634;-82
2023/06/18 04:57:10;;;;;;;9.03;8.13;;;19.60;99.90;;;;;;5089663;28;20424;-80
2023/06/18 04:59:40;;;;;;;9.37;8.50;;;19.70;99.90;;;;;;5090008;28;20753;-80
2023/06/18 05:02:06;;;;;;;7.83;7.03;;;19.80;99.90;;;;;;5071443;28;20746;-83
2023/06/18 05:04:32;;;;;;;9.17;8.27;;;19.80;99.90;;;;;;5090146;28;20762;-82
2023/06/18 05:06:58;;;;;;;8.40;7.60;;;19.90;99.90;;;;;;5089602;28;20417;-81
2023/06/18 05:09:26;;;;;;;9.40;7.80;;;20.00;99.90;;;;;;5071323;28;20204;-83
2023/06/18 05:11:51;;;;;;;9.93;7.70;;;20.10;99.90;;;;;;5089586;28;20217;-82
2023/06/18 05:14:17;;;;;;;9.57;7.87;;;20.20;99.90;;;;;;5089629;28;20508;-81
2023/06/18 05:16:43;;;;;;;10.40;8.30;;;20.30;99.90;;;;;;5071240;28;20649;-81
2023/06/18 05:19:08;;;;;;;8.97;8.07;;;20.40;99.90;;;;;;5087978;28;20199;-82
2023/06/18 05:21:34;;;;;;;8.67;7.77;;;20.50;99.90;;;;;;5088859;28;20590;-83
2023/06/18 05:23:59;;;;;;;8.67;7.77;;;20.50;99.90;;;;;;5089713;28;20200;-80
2023/06/18 05:26:25;;;;;;;8.00;6.90;;;20.60;99.90;;;;;;5089401;28;20175;-81
2023/06/18 05:28:51;;;;;;;9.30;7.60;;;20.70;99.90;;;;;;5089409;28;20196;-81
2023/06/18 05:31:17;;;;;;;10.77;8.20;;;20.80;99.90;;;;;;5070862;28;20909;-82
2023/06/18 05:33:42;;;;;;;10.30;7.53;;;20.90;99.90;;;;;;5071305;28;20191;-82
2023/06/18 05:36:09;;;;;;;8.30;7.50;;;21.00;99.90;;;;;;5070716;28;20280;-81
2023/06/18 05:38:34;;;;;;;8.03;7.23;;;21.10;99.90;;;;;;5070705;28;20549;-82
2023/06/18 05:41:00;;;;;;;10.13;6.90;;;21.10;99.90;;;;;;5089411;28;20416;-83
2023/06/18 05:43:26;;;;;;;9.60;6.70;;;21.20;99.90;;;;;;5088270;28;20227;-82
2023/06/18 05:45:51;;;;;;;9.07;8.20;;;21.30;99.90;;;;;;5070833;28;20358;-80
2023/06/18 05:48:17;;;;;;;8.80;8.00;;;21.40;99.90;;;;;;5070292;28;20652;-81
2023/06/18 05:50:42;;;;;;;10.60;7.53;;;21.50;99.90;;;;;;5088791;28;20208;-80
2023/06/18 05:53:08;;;;;;;8.90;8.10;;;21.60;99.90;;;;;;5088669;28;20531;-80
2023/06/18 05:55:34;;;;;;;8.97;8.07;;;21.60;99.90;;;;;;5088142;28;20872;-83
2023/06/18 05:57:59;;;;;;;8.70;6.80;;;21.70;99.90;;;;;;5088606;28;20621;-80
2023/06/18 06:00:26;;;;;;;8.70;7.80;;;21.70;99.90;;;;;;5088662;28;20192;-81
2023/06/18 06:02:52;;;;;;;10.00;8.10;;;21.80;99.90;;;;;;5088245;28;20182;-83
2023/06/18 06:05:18;;;;;;;8.73;7.20;;;21.90;99.90;;;;;;5088439;28;20430;-81
2023/06/18 06:07:43;;;;;;;8.57;7.77;;;21.90;99.90;;;;;;5070205;28;20940;-81
2023/06/18 06:10:11;;;;;;;8.97;7.40;;;22.00;99.90;;;;;;5088855;28;20283;-81
2023/06/18 06:12:37;;;;;;;8.20;7.40;;;22.00;99.90;;;;;;5070037;28;20179;-81
2023/06/18 06:15:04;;;;;;;8.83;7.93;;;22.00;99.90;;;;;;5069951;28;20473;-81
2023/06/18 06:17:30;;;;;;;7.80;7.10;;;22.10;99.90;;;;;;5069715;28;20424;-83
2023/06/18 06:19:55;;;;;;;9.33;8.40;;;22.20;99.90;;;;;;5068527;28;20493;-83
2023/06/18 06:22:21;;;;;;;8.50;7.20;;;22.30;99.90;;;;;;5087773;28;20174;-80
2023/06/18 06:24:47;;;;;;;7.37;6.67;;;22.30;99.90;;;;;;5088305;28;20199;-83
2023/06/18 06:27:12;;;;;;;7.40;6.70;;;22.40;99.90;;;;;;5087923;28;20206;-83
2023/06/18 06:29:38;;;;;;;9.37;8.20;;;22.50;99.90;;;;;;5088312;28;20192;-83
2023/06/18 06:32:04;;;;;;;8.57;7.67;;;22.50;99.90;;;;;;5069581;28;20217;-81
2023/06/18 06:34:30;;;;;;;7.47;6.77;;;22.60;99.90;;;;;;5069739;28;20216;-83
2023/06/18 06:36:55;;;;;;;7.33;6.63;;;22.70;99.90;;;;;;5069775;28;20802;-83
2023/06/18 06:39:21;;;;;;;9.70;6.90;;;22.70;99.90;;;;;;5088063;28;20554;-82
2023/06/18 06:41:47;;;;;;;9.80;6.90;;;22.80;99.90;;;;;;5069545;28;20199;-83
2023/06/18 06:44:13;;;;;;;8.27;7.30;;;22.80;99.90;;;;;;5069672;28;20500;-83
2023/06/18 06:46:38;;;;;;;6.97;6.37;;;22.90;99.90;;;;;;5087619;28;20172;-81
2023/06/18 06:49:07;;;;;;;7.43;6.57;;;22.90;99.90;;;;;;5087947;28;20228;-80
2023/06/18 06:51:33;;;;;;;7.40;6.60;;;23.00;99.90;;;;;;5068973;28;20170;-81
2023/06/18 06:54:00;;;;;;;9.80;6.80;;;23.00;99.90;;;;;;5069305;28;20642;-81
2023/06/18 06:56:25;;;;;;;7.70;6.77;;;23.10;99.90;;;;;;5069188;28;20437;-80
2023/06/18 06:58:51;;;;;;;9.00;6.53;;;23.20;99.90;;;;;;5087774;28;20441;-83
2023/06/18 07:01:19;;;;;;;7.20;6.53;;;23.30;99.90;;;;;;5069067;28;20566;-84
2023/06/18 07:03:45;;;;;;;7.20;6.50;;;23.30;99.90;;;;;;5087718;28;20225;-81
2023/06/18 07:06:11;;;;;;;7.37;6.67;;;23.40;99.90;;;;;;5087212;28;20432;-84
2023/06/18 07:08:37;;;;;;;6.60;6.00;;;23.40;99.90;;;;;;5087000;28;20600;-83
2023/06/18 07:11:03;;;;;;;6.90;6.20;;;23.50;99.90;;;;;;5086213;28;20757;-79
2023/06/18 07:13:29;;;;;;;7.23;6.63;;;23.50;99.90;;;;;;5069120;28;20535;-90
2023/06/18 07:15:54;;;;;;;8.47;6.23;;;23.60;99.90;;;;;;5087235;28;20230;-79
2023/06/18 07:18:20;;;;;;;7.63;6.90;;;23.60;99.90;;;;;;5068588;28;20183;-84
2023/06/18 07:20:46;;;;;;;7.13;5.93;;;23.60;99.90;;;;;;5086435;28;20311;-78
2023/06/18 07:23:11;;;;;;;9.30;6.27;;;23.70;99.90;;;;;;5085748;28;20622;-79
2023/06/18 07:25:37;;;;;;;7.17;6.37;;;23.70;99.90;;;;;;5068615;28;20571;-78
2023/06/18 07:28:03;;;;;;;6.53;5.47;;;23.80;99.90;;;;;;5086947;28;20616;-79
2023/06/18 07:30:28;;;;;;;7.43;5.77;;;23.80;99.90;;;;;;5087240;28;20649;-84
2023/06/18 07:32:54;;;;;;;6.53;5.93;;;23.80;99.90;;;;;;5087047;28;20182;-84
2023/06/18 07:35:19;;;;;;;5.30;4.80;;;23.80;99.90;;;;;;5087088;28;20220;-88
2023/06/18 07:37:45;;;;;;;5.57;5.03;;;23.90;99.90;;;;;;5087089;28;20176;-89
2023/06/18 07:40:11;;;;;;;5.93;5.33;;;24.00;99.90;;;;;;5087261;28;20302;-79
2023/06/18 07:42:37;;;;;;;5.87;5.33;;;24.00;99.90;;;;;;5068309;28;20980;-77
2023/06/18 07:45:03;;;;;;;5.40;4.90;;;24.00;99.90;;;;;;5086942;28;20824;-76
2023/06/18 07:47:29;;;;;;;6.77;5.63;;;24.10;99.90;;;;;;5086350;28;20219;-88
2023/06/18 07:49:55;;;;;;;6.43;5.77;;;24.10;99.90;;;;;;5068803;28;20457;-77
2023/06/18 07:52:21;;;;;;;6.13;5.53;;;24.20;99.90;;;;;;5086620;28;20177;-78
2023/06/18 07:54:46;;;;;;;5.07;4.67;;;24.20;99.90;;;;;;5087640;28;20215;-89
2023/06/18 07:57:12;;;;;;;6.20;5.10;;;24.40;99.90;;;;;;5086811;28;20246;-90
2023/06/18 07:59:38;;;;;;;6.37;5.77;;;24.50;99.90;;;;;;5087436;28;20231;-76
2023/06/18 08:02:04;;;;;;;6.50;5.93;;;24.60;99.90;;;;;;5068501;28;20420;-76
2023/06/18 08:04:29;;;;;;;6.40;5.37;;;24.70;99.90;;;;;;5068767;28;20204;-76
2023/06/18 08:06:55;;;;;;;10.20;5.60;;;24.70;99.90;;;;;;5068801;28;20187;-91
2023/06/18 08:09:21;;;;;;;6.10;5.20;;;24.90;99.90;;;;;;5068242;28;20208;-91
2023/06/18 08:11:48;;;;;;;5.30;4.87;;;24.90;99.90;;;;;;5085396;28;20179;-75
2023/06/18 08:14:14;;;;;;;5.83;5.33;;;25.00;99.90;;;;;;5087167;28;20215;-92
2023/06/18 08:16:39;;;;;;;5.20;4.70;;;25.10;99.90;;;;;;5086636;28;20401;-89
2023/06/18 08:19:05;;;;;;;6.03;5.43;;;25.10;99.90;;;;;;5089753;28;20724;-76
2023/06/18 08:21:32;;;;;;;7.10;5.33;;;25.20;99.90;;;;;;5088677;28;20168;-75
2023/06/18 08:23:58;;;;;;;6.43;5.83;;;25.30;99.90;;;;;;5055824;28;20444;-76
2023/06/18 08:26:24;;;;;;;5.60;5.00;;;25.40;99.90;;;;;;5071467;28;20454;-75
2023/06/18 08:28:50;;;;;;;6.07;5.57;;;25.50;99.90;;;;;;5070570;28;20687;-89
2023/06/18 08:31:16;;;;;;;5.30;4.90;;;25.50;99.90;;;;;;5070840;28;20260;-76
2023/06/18 08:33:42;;;;;;;6.93;4.97;;;25.60;99.90;;;;;;5089937;28;20421;-92
2023/06/18 08:36:08;;;;;;;6.17;5.47;;;25.70;99.90;;;;;;5089340;28;20497;-75
2023/06/18 08:38:33;;;;;;;8.93;5.37;;;25.70;99.90;;;;;;5071255;28;20184;-75
2023/06/18 08:41:02;;;;;;;10.10;4.70;;;25.80;99.90;;;;;;5089685;28;20199;-76
2023/06/18 08:43:32;;;;;;;5.60;5.10;;;25.80;99.90;;;;;;5088874;28;20615;-75
2023/06/18 08:46:11;;;;;;;5.70;5.20;;;25.90;99.90;;;;;;5071164;28;20410;-75
2023/06/18 08:48:56;;;;;;;5.90;5.40;;;26.00;99.90;;;;;;5089742;28;20928;-75
2023/06/18 08:51:23;;;;;;;5.67;4.40;;;26.00;99.90;;;;;;5071772;28;20924;-90
2023/06/18 08:54:10;;;;;;;6.80;4.67;;;26.10;99.90;;;;;;5090988;28;20807;-91
2023/06/18 08:56:44;;;;;;;5.73;5.07;;;26.10;99.90;;;;;;5070845;28;20432;-91
2023/06/18 08:59:11;;;;;;;5.23;4.73;;;26.10;99.90;;;;;;5073009;28;20910;-76
2023/06/18 09:01:37;;;;;;;4.50;4.10;;;26.20;99.90;;;;;;5088972;28;20994;-89
2023/06/18 09:04:04;;;;;;;4.97;4.47;;;26.20;99.90;;;;;;5071159;28;20433;-77
2023/06/18 09:06:30;;;;;;;5.60;4.70;;;26.30;99.90;;;;;;5089472;28;20980;-89
2023/06/18 09:08:58;;;;;;;5.53;5.03;;;26.40;99.90;;;;;;5089722;28;20429;-88
2023/06/18 09:11:24;;;;;;;5.47;4.97;;;26.40;99.90;;;;;;5089530;28;20168;-77
2023/06/18 09:13:49;;;;;;;5.07;4.67;;;26.40;99.90;;;;;;5071607;28;20449;-91
2023/06/18 09:16:15;;;;;;;5.10;4.70;;;26.50;99.90;;;;;;5088837;28;21187;-84
2023/06/18 09:18:41;;;;;;;4.60;4.30;;;26.60;99.90;;;;;;5088884;28;20181;-81
2023/06/18 09:21:07;;;;;;;4.73;4.33;;;26.60;99.90;;;;;;5069645;28;20193;-76
2023/06/18 09:23:33;;;;;;;8.23;4.77;;;26.70;99.90;;;;;;5069928;28;20461;-92
2023/06/18 09:26:00;;;;;;;4.73;4.30;;;26.80;99.90;;;;;;5088310;28;20175;-77
2023/06/18 09:28:27;;;;;;;5.83;4.03;;;26.90;99.90;;;;;;5068849;28;21013;-92
2023/06/18 09:30:57;;;;;;;4.83;4.33;;;26.90;99.50;;;;;;5087727;28;20924;-77
2023/06/18 09:33:32;;;;;;;7.03;4.57;;;26.90;99.90;;;;;;5089201;28;20758;-90
2023/06/18 09:36:08;;;;;;;5.50;4.10;;;26.90;99.90;;;;;;5071109;28;20523;-77
2023/06/18 09:38:41;;;;;;;4.40;4.00;;;27.00;99.90;;;;;;5089479;28;20422;-79
2023/06/18 09:41:12;;;;;;;4.50;3.63;;;27.00;99.90;;;;;;5070619;28;20432;-90
2023/06/18 09:43:40;;;;;;;4.80;4.30;;;27.00;99.90;;;;;;5070999;28;20962;-77
2023/06/18 09:46:07;;;;;;;4.30;3.97;;;27.10;99.40;;;;;;5088706;28;20909;-86
2023/06/18 09:48:37;;;;;;;4.27;3.87;;;27.10;99.70;;;;;;5070655;28;20487;-87
2023/06/18 09:51:04;;;;;;;4.57;4.17;;;27.10;99.90;;;;;;5070542;28;20474;-86
2023/06/18 09:53:29;;;;;;;4.33;4.03;;;27.10;99.90;;;;;;5088441;28;20425;-85
2023/06/18 09:56:11;;;;;;;5.53;4.63;;;27.20;99.20;;;;;;5088690;28;20464;-78
2023/06/18 09:58:50;;;;;;;4.33;3.50;;;27.30;99.70;;;;;;5088893;28;20180;-78
2023/06/18 10:01:18;;;;;;;3.70;3.40;;;27.40;99.70;;;;;;5070078;28;20442;-78
2023/06/18 10:03:45;;;;;;;3.90;3.60;;;27.40;99.30;;;;;;5070347;28;20422;-77
2023/06/18 10:06:12;;;;;;;5.23;4.10;;;27.50;99.00;;;;;;5088193;28;20445;-84
2023/06/18 10:08:40;;;;;;;3.93;3.63;;;27.50;99.00;;;;;;5088264;28;20741;-84
2023/06/18 10:11:09;;;;;;;4.03;3.70;;;27.50;99.00;;;;;;5087840;28;20415;-82
2023/06/18 10:13:41;;;;;;;4.20;3.87;;;27.50;98.60;;;;;;5086629;28;20527;-83
2023/06/18 10:16:08;;;;;;;3.83;3.53;;;27.60;98.40;;;;;;5069842;28;20808;-84
2023/06/18 10:18:34;;;;;;;4.70;4.30;;;27.60;98.00;;;;;;5086371;28;20542;-78
2023/06/18 10:21:04;;;;;;;3.73;3.43;;;27.70;97.80;;;;;;5083615;28;20786;-86
2023/06/18 10:23:33;;;;;;;4.20;3.80;;;27.60;98.30;;;;;;5067834;28;20810;-83
2023/06/18 10:26:01;;;;;;;6.97;4.80;;;27.70;98.20;;;;;;5085889;28;20465;-85
2023/06/18 10:28:32;;;;;;;5.67;3.77;;;27.70;97.70;;;;;;5067589;28;20430;-78
2023/06/18 10:30:58;;;;;;;4.83;4.27;;;27.70;97.80;;;;;;5067795;28;20476;-79
2023/06/18 10:33:24;;;;;;;4.17;3.87;;;27.60;97.70;;;;;;5063723;28;20420;-81
2023/06/18 10:35:51;;;;;;;4.03;3.50;;;27.70;96.90;;;;;;5064524;28;20562;-81
2023/06/18 10:38:17;;;;;;;4.10;3.80;;;27.70;96.40;;;;;;5064101;28;20583;-81
2023/06/18 10:40:43;;;;;;;4.03;3.63;;;27.80;96.70;;;;;;5045966;28;20448;-81
2023/06/18 10:43:09;;;;;;;3.87;3.57;;;27.90;94.30;;;;;;5045696;28;21139;-80
2023/06/18 10:45:35;;;;;;;5.73;5.23;;;27.90;95.10;;;;;;5064275;28;20204;-83
2023/06/18 10:48:15;;;;;;;4.37;3.97;;;28.00;94.60;;;;;;5064134;28;20428;-79
2023/06/18 10:51:12;;;;;;;16.87;15.00;;;28.00;94.00;;;;;;5064159;28;20245;-76
2023/06/18 10:53:37;;;;;;;6.00;5.47;;;28.10;93.30;;;;;;5065533;28;20574;-75
2023/06/18 10:56:04;;;;;;;4.87;4.10;;;28.20;92.40;;;;;;5065249;28;20775;-81
2023/06/18 10:58:39;;;;;;;4.10;3.70;;;28.20;92.70;;;;;;5063928;28;20515;-78
2023/06/18 11:01:05;;;;;;;4.13;3.83;;;28.10;95.50;;;;;;5064147;28;20507;-79
2023/06/18 11:03:35;;;;;;;4.07;3.77;;;27.90;94.70;;;;;;5065436;28;20543;-79
2023/06/18 11:06:03;;;;;;;4.87;4.20;;;27.60;96.30;;;;;;5047466;28;20182;-78
2023/06/18 11:08:32;;;;;;;4.27;3.97;;;27.60;93.10;;;;;;5064172;28;20512;-78
2023/06/18 11:11:06;;;;;;;4.43;4.10;;;27.80;94.00;;;;;;5047500;28;20408;-79
2023/06/18 11:13:36;;;;;;;4.50;4.10;;;27.90;92.00;;;;;;5047570;28;20447;-77
2023/06/18 11:16:06;;;;;;;4.80;4.40;;;27.70;95.70;;;;;;5063913;28;20472;-79
2023/06/18 11:18:33;;;;;;;4.93;4.53;;;27.20;95.00;;;;;;5065934;28;20421;-77
2023/06/18 11:21:02;;;;;;;4.43;4.03;;;27.30;95.40;;;;;;5047251;28;20452;-77
2023/06/18 11:23:30;;;;;;;5.30;4.80;;;26.90;97.20;;;;;;5064977;28;20419;-76
2023/06/18 11:25:56;;;;;;;4.40;4.00;;;26.80;97.10;;;;;;5047535;28;20569;-76
2023/06/18 11:28:26;;;;;;;6.40;4.93;;;26.70;97.70;;;;;;5064940;28;20419;-77
2023/06/18 11:31:00;;;;;;;4.20;3.90;;;26.70;97.70;;;;;;5065518;28;20435;-79
2023/06/18 11:33:27;;;;;;;5.10;4.60;;;26.70;97.40;;;;;;5079400;28;20511;-78
2023/06/18 11:36:05;;;;;;;4.27;3.97;;;26.80;97.20;;;;;;5066885;28;20471;-78
2023/06/18 11:38:32;;;;;;;5.87;4.23;;;26.80;97.80;;;;;;5083380;28;20882;-77
2023/06/18 11:40:58;;;;;;;4.70;4.20;;;26.90;97.40;;;;;;5084410;28;20678;-78
2023/06/18 11:43:23;;;;;;;4.23;3.90;;;26.80;97.60;;;;;;5082952;28;20559;-78
2023/06/18 11:45:51;;;;;;;5.57;4.30;;;27.00;95.80;;;;;;5065888;28;20305;-77
2023/06/18 11:48:20;;;;;;;6.07;4.40;;;27.30;94.20;;;;;;5083928;28;20193;-81
2023/06/18 11:50:53;;;;;;;5.00;4.60;;;27.30;96.90;;;;;;5067353;28;20526;-81
2023/06/18 11:53:22;;;;;;;5.03;4.63;;;27.20;94.90;;;;;;5068222;28;20435;-81
2023/06/18 11:55:48;;;;;;;4.43;4.03;;;27.10;97.60;;;;;;5068918;28;20512;-80
2023/06/18 11:58:15;;;;;;;4.77;4.23;;;27.10;97.10;;;;;;5067564;28;20989;-79
2023/06/18 12:00:42;;;;;;;6.57;5.00;;;26.70;98.40;;;;;;5067266;28;20426;-81
2023/06/18 12:03:07;;;;;;;4.93;4.50;;;26.60;98.30;;;;;;5085568;28;20422;-80
2023/06/18 12:05:38;;;;;;;4.67;4.27;;;26.60;97.50;;;;;;5086084;28;20556;-80
2023/06/18 12:08:14;;;;;;;5.80;5.30;;;26.90;96.00;;;;;;5085706;28;20220;-80
2023/06/18 12:10:42;;;;;;;5.93;5.30;;;27.00;98.00;;;;;;5068468;28;20457;-82
2023/06/18 12:13:20;;;;;;;8.83;6.73;;;27.00;97.70;;;;;;5087465;28;20414;-80
2023/06/18 12:16:12;;;;;;;6.03;5.43;;;27.30;96.90;;;;;;5070931;28;20466;-81
2023/06/18 12:18:43;;;;;;;12.40;8.07;;;27.50;96.00;;;;;;5070419;28;20948;-79
2023/06/18 12:21:09;;;;;;;5.47;4.87;;;27.40;97.50;;;;;;5069915;28;20536;-78
2023/06/18 12:23:38;;;;;;;8.03;6.80;;;27.50;97.90;;;;;;5088836;28;20456;-80
2023/06/18 12:26:05;;;;;;;7.20;5.33;;;27.50;97.00;;;;;;5069834;28;20406;-80
2023/06/18 12:28:34;;;;;;;5.17;4.70;;;27.30;95.30;;;;;;5070529;28;20463;-80
2023/06/18 12:31:06;;;;;;;5.10;4.70;;;27.60;95.30;;;;;;5070249;28;20510;-80
2023/06/18 12:33:38;;;;;;;8.97;8.17;;;27.50;97.60;;;;;;5088055;28;20424;-79
2023/06/18 12:36:04;;;;;;;12.20;11.00;;;27.50;97.40;;;;;;5069349;28;20465;-79
2023/06/18 12:38:43;;;;;;;6.27;5.73;;;27.60;96.60;;;;;;5088663;28;20505;-80
2023/06/18 12:41:09;;;;;;;25.47;21.60;;;27.70;96.10;;;;;;5070130;28;20415;-82
2023/06/18 12:43:42;;;;;;;18.80;16.90;;;27.70;94.30;;;;;;5088239;28;20464;-83